Time;durP1;ratioP1;P1;durP2;ratioP2;P2;SDS_P1;SDS_P2;PMS_P1;PMS_P2;Temp;Humidity;BMP_temperature;BMP_pressure;BME280_temperature;BME280_humidity;BME280_pressure;Samples;Min_cycle;Max_cycle;Signal;HPM_P1;HPM_P2
2021/11/01 00:01:20;;;;;;;236.23;33.47;;;13.50;99.90;;;;;;6072313;23;20477;-77
2021/11/01 00:03:50;;;;;;;264.70;38.20;;;13.40;99.90;;;;;;6072657;23;20420;-77
2021/11/01 00:06:18;;;;;;;273.97;41.27;;;13.40;99.90;;;;;;6071934;23;21016;-77
2021/11/01 00:08:48;;;;;;;248.63;30.97;;;13.40;99.90;;;;;;6098017;23;20478;-77
2021/11/01 00:11:16;;;;;;;215.30;35.13;;;13.40;99.90;;;;;;6072400;23;20426;-77
2021/11/01 00:13:44;;;;;;;143.37;25.03;;;13.40;99.90;;;;;;6072223;23;20474;-77
2021/11/01 00:16:13;;;;;;;141.50;24.13;;;13.40;99.90;;;;;;6072235;23;20509;-77
2021/11/01 00:18:41;;;;;;;277.97;35.37;;;13.30;99.90;;;;;;6072238;23;20497;-77
2021/11/01 00:21:09;;;;;;;302.93;35.87;;;13.30;99.90;;;;;;6072164;23;20438;-77
2021/11/01 00:23:38;;;;;;;265.57;34.77;;;13.30;99.90;;;;;;6072262;23;20429;-77
2021/11/01 00:26:07;;;;;;;178.30;40.90;;;13.30;99.90;;;;;;6072076;23;20498;-77
2021/11/01 00:28:35;;;;;;;309.33;48.70;;;13.20;99.90;;;;;;6107525;23;20874;-77
2021/11/01 00:31:04;;;;;;;177.53;21.73;;;13.20;99.90;;;;;;6107263;23;20929;-76
2021/11/01 00:33:32;;;;;;;265.10;35.33;;;13.20;99.90;;;;;;6071917;23;20434;-77
2021/11/01 00:36:01;;;;;;;162.53;32.53;;;13.20;99.90;;;;;;6072099;23;20753;-76
2021/11/01 00:38:29;;;;;;;295.77;42.77;;;13.20;99.90;;;;;;6107095;23;20449;-76
2021/11/01 00:40:58;;;;;;;274.27;37.80;;;13.20;99.90;;;;;;6072099;23;20915;-77
2021/11/01 00:43:27;;;;;;;220.50;34.00;;;13.10;99.90;;;;;;6107299;23;20941;-77
2021/11/01 00:45:56;;;;;;;135.47;28.77;;;13.10;99.90;;;;;;6071868;23;20442;-77
2021/11/01 00:48:24;;;;;;;372.40;48.60;;;13.10;99.90;;;;;;6071987;23;20782;-77
2021/11/01 00:50:52;;;;;;;253.97;36.20;;;13.10;99.90;;;;;;6097618;23;20434;-77
2021/11/01 00:53:27;;;;;;;163.50;28.43;;;13.00;99.90;;;;;;6071930;23;20504;-77
2021/11/01 00:55:56;;;;;;;239.87;29.87;;;13.00;99.90;;;;;;6071579;23;20449;-76
2021/11/01 00:58:25;;;;;;;283.77;41.77;;;13.00;99.90;;;;;;6071788;23;20470;-77
2021/11/01 01:00:56;;;;;;;255.97;36.97;;;13.00;99.90;;;;;;6107203;23;20485;-77
2021/11/01 01:03:25;;;;;;;249.37;37.77;;;12.90;99.90;;;;;;6071915;23;20406;-77
2021/11/01 01:05:58;;;;;;;270.70;56.97;;;12.90;99.90;;;;;;6097322;23;20438;-77
2021/11/01 01:08:30;;;;;;;243.97;41.57;;;12.90;99.90;;;;;;6071993;23;20418;-77
2021/11/01 01:10:58;;;;;;;272.17;46.27;;;12.80;99.90;;;;;;6097569;23;20438;-77
2021/11/01 01:13:34;;;;;;;225.63;31.57;;;12.80;99.90;;;;;;6072030;23;20508;-77
2021/11/01 01:16:20;;;;;;;253.50;35.57;;;12.80;99.90;;;;;;6072107;23;20770;-76
2021/11/01 01:18:51;;;;;;;281.37;43.57;;;12.80;99.90;;;;;;6097541;23;20406;-77
2021/11/01 01:24:06;;;;;;;278.60;35.63;;;12.70;99.90;;;;;;6071806;23;21002;-77
2021/11/01 01:26:36;;;;;;;249.27;38.33;;;12.60;99.90;;;;;;6071589;23;20465;-77
2021/11/01 01:29:06;;;;;;;216.03;38.53;;;12.60;99.90;;;;;;6071670;23;20477;-77
2021/11/01 01:31:41;;;;;;;239.03;28.67;;;12.60;99.90;;;;;;6071971;23;20870;-77
2021/11/01 01:34:11;;;;;;;201.07;25.83;;;12.60;99.90;;;;;;6071617;23;20924;-77
2021/11/01 01:36:39;;;;;;;324.20;36.70;;;12.50;99.90;;;;;;6071526;23;20422;-77
2021/11/01 01:39:08;;;;;;;299.63;46.73;;;12.50;99.90;;;;;;6107455;23;20714;-77
2021/11/01 01:41:36;;;;;;;248.23;34.80;;;12.50;99.90;;;;;;6071674;23;20422;-77
2021/11/01 01:44:06;;;;;;;153.43;25.03;;;12.40;99.90;;;;;;6097166;23;20406;-77
2021/11/01 01:46:34;;;;;;;331.63;50.37;;;12.40;99.90;;;;;;6097502;23;20438;-77
2021/11/01 01:49:04;;;;;;;195.73;28.83;;;12.40;99.90;;;;;;6071456;23;20458;-77
2021/11/01 01:51:33;;;;;;;281.63;44.67;;;12.30;99.90;;;;;;6071868;23;20418;-77
2021/11/01 01:54:02;;;;;;;172.80;32.60;;;12.30;99.90;;;;;;6097481;23;20418;-77
2021/11/01 01:56:31;;;;;;;188.80;39.87;;;12.30;99.90;;;;;;6071619;23;20732;-77
2021/11/01 01:59:17;;;;;;;267.50;44.67;;;12.30;99.90;;;;;;6106897;23;20453;-77
2021/11/01 02:01:47;;;;;;;184.20;31.43;;;12.20;99.90;;;;;;6084323;23;20433;-77
2021/11/01 02:04:19;;;;;;;203.63;24.57;;;12.20;99.90;;;;;;6071684;23;20425;-77
2021/11/01 02:07:11;;;;;;;240.00;39.80;;;12.20;99.90;;;;;;6071549;23;20437;-76
2021/11/01 02:09:50;;;;;;;193.53;27.33;;;12.20;99.90;;;;;;6073222;23;20496;-76
2021/11/01 02:12:21;;;;;;;196.00;33.00;;;12.10;99.90;;;;;;6108829;23;20382;-77
2021/11/01 02:14:53;;;;;;;245.80;29.13;;;12.10;99.90;;;;;;6073450;23;20410;-77
2021/11/01 02:17:23;;;;;;;275.60;34.23;;;12.10;99.90;;;;;;6109300;23;20438;-77
2021/11/01 02:19:56;;;;;;;260.97;30.03;;;12.00;99.90;;;;;;6073318;23;20500;-77
2021/11/01 02:22:35;;;;;;;263.70;39.00;;;12.00;99.90;;;;;;6108876;23;20422;-77
2021/11/01 02:25:08;;;;;;;236.53;30.43;;;12.00;99.90;;;;;;6109021;23;20826;-77
2021/11/01 02:27:40;;;;;;;167.77;16.73;;;12.00;99.90;;;;;;6073352;23;20449;-77
2021/11/01 02:30:11;;;;;;;245.43;38.33;;;11.90;99.90;;;;;;6073090;23;20445;-76
2021/11/01 02:32:44;;;;;;;281.43;39.83;;;11.90;99.90;;;;;;6073279;23;20430;-77
2021/11/01 02:35:13;;;;;;;252.70;38.97;;;11.90;99.90;;;;;;6108465;23;20446;-76
2021/11/01 02:37:43;;;;;;;229.03;34.00;;;11.90;99.90;;;;;;6073561;23;20745;-77
2021/11/01 02:40:12;;;;;;;241.00;33.97;;;11.90;99.90;;;;;;6073062;23;20444;-77
2021/11/01 02:42:41;;;;;;;210.60;23.97;;;11.80;99.90;;;;;;6073101;23;20973;-77
2021/11/01 02:45:12;;;;;;;302.87;36.73;;;11.80;99.90;;;;;;6073111;23;20477;-77
2021/11/01 02:47:43;;;;;;;202.33;25.53;;;11.80;99.90;;;;;;6072875;23;20466;-77
2021/11/01 02:50:14;;;;;;;221.47;44.53;;;11.80;99.90;;;;;;6098492;23;20469;-77
2021/11/01 02:52:43;;;;;;;191.27;29.73;;;11.80;99.90;;;;;;6073182;23;20949;-77
2021/11/01 02:55:12;;;;;;;189.73;33.27;;;11.70;99.90;;;;;;6073240;23;20513;-77
2021/11/01 02:57:43;;;;;;;292.83;44.80;;;11.70;99.90;;;;;;6072991;23;20422;-77
2021/11/01 03:00:13;;;;;;;255.73;38.23;;;11.70;99.90;;;;;;6072894;23;20498;-77
2021/11/01 03:02:41;;;;;;;289.20;39.20;;;11.70;99.90;;;;;;6072825;23;20478;-76
2021/11/01 03:05:12;;;;;;;206.90;31.67;;;11.70;99.90;;;;;;6072821;23;20416;-76
2021/11/01 03:07:42;;;;;;;187.33;31.00;;;11.70;99.90;;;;;;6072852;23;20462;-77
2021/11/01 03:10:12;;;;;;;188.90;35.77;;;11.60;99.90;;;;;;6072958;23;20933;-76
2021/11/01 03:12:44;;;;;;;248.13;37.20;;;11.60;99.90;;;;;;6072761;23;20419;-77
2021/11/01 03:15:19;;;;;;;240.03;41.20;;;11.60;99.90;;;;;;6108234;23;20736;-77
2021/11/01 03:17:52;;;;;;;181.27;38.60;;;11.60;99.90;;;;;;6098584;23;20429;-77
2021/11/01 03:20:25;;;;;;;197.13;31.63;;;11.60;99.90;;;;;;6072650;23;20442;-76
2021/11/01 03:22:57;;;;;;;219.40;38.27;;;11.60;99.90;;;;;;6072747;23;20458;-77
2021/11/01 03:25:35;;;;;;;209.00;29.77;;;11.60;99.90;;;;;;6072838;23;20449;-76
2021/11/01 03:28:08;;;;;;;244.03;41.67;;;11.50;99.90;;;;;;6107835;23;20753;-77
2021/11/01 03:30:38;;;;;;;188.20;27.70;;;11.50;99.90;;;;;;6072775;23;20525;-77
2021/11/01 03:33:06;;;;;;;236.20;29.07;;;11.50;99.90;;;;;;6072337;23;20482;-77
2021/11/01 03:35:36;;;;;;;237.70;29.80;;;11.50;99.90;;;;;;6073786;23;20418;-77
2021/11/01 03:38:06;;;;;;;221.70;37.10;;;11.50;99.90;;;;;;6072664;23;20839;-77
2021/11/01 03:40:36;;;;;;;108.67;22.97;;;11.50;99.90;;;;;;6072604;23;20474;-77
2021/11/01 03:43:07;;;;;;;271.23;39.40;;;11.50;99.90;;;;;;6098100;23;20406;-76
2021/11/01 03:45:40;;;;;;;201.97;39.77;;;11.50;99.90;;;;;;6072715;23;20414;-77
2021/11/01 03:48:09;;;;;;;221.00;36.17;;;11.50;99.90;;;;;;6072837;23;20434;-77
2021/11/01 03:50:41;;;;;;;148.30;25.47;;;11.40;99.90;;;;;;6072489;23;20438;-77
2021/11/01 03:53:10;;;;;;;210.97;24.50;;;11.40;99.90;;;;;;6072563;23;20755;-77
2021/11/01 03:55:39;;;;;;;252.13;45.63;;;11.40;99.90;;;;;;6072596;23;20462;-77
2021/11/01 03:58:09;;;;;;;219.33;35.13;;;11.40;99.90;;;;;;6107787;23;20399;-77
2021/11/01 04:00:37;;;;;;;336.40;33.07;;;11.40;99.90;;;;;;6072814;23;20441;-77
2021/11/01 04:03:08;;;;;;;244.83;32.00;;;11.40;99.90;;;;;;6072136;23;20418;-76
2021/11/01 04:05:37;;;;;;;132.27;33.87;;;11.40;99.90;;;;;;6107709;23;20402;-77
2021/11/01 04:08:06;;;;;;;213.43;31.57;;;11.40;99.90;;;;;;6072374;23;20492;-77
2021/11/01 04:10:34;;;;;;;142.43;29.00;;;11.40;99.90;;;;;;6107598;23;20921;-77
2021/11/01 04:13:03;;;;;;;134.80;23.97;;;11.40;99.90;;;;;;6072212;23;20414;-77
2021/11/01 04:15:37;;;;;;;239.27;44.30;;;11.40;99.90;;;;;;6072568;23;20473;-77
2021/11/01 04:18:11;;;;;;;145.03;25.37;;;11.30;99.90;;;;;;6098033;23;20489;-77
2021/11/01 04:20:50;;;;;;;310.33;38.37;;;11.30;99.90;;;;;;6072055;23;20474;-77
2021/11/01 04:23:20;;;;;;;229.10;37.87;;;11.30;99.90;;;;;;6107582;23;20445;-77
2021/11/01 04:25:49;;;;;;;224.43;41.63;;;11.30;99.90;;;;;;6107521;23;20387;-77
2021/11/01 04:28:17;;;;;;;178.47;36.27;;;11.30;99.90;;;;;;6072114;23;20442;-76
2021/11/01 04:30:55;;;;;;;178.37;36.73;;;11.30;99.90;;;;;;6071699;23;20441;-77
2021/11/01 04:33:25;;;;;;;264.97;37.43;;;11.30;99.90;;;;;;6097706;23;20484;-77
2021/11/01 04:35:55;;;;;;;143.47;28.83;;;11.30;99.90;;;;;;6072193;23;20481;-77
2021/11/01 04:38:38;;;;;;;211.27;31.00;;;11.30;99.90;;;;;;6071986;23;20426;-77
2021/11/01 04:41:14;;;;;;;254.80;38.47;;;11.20;99.90;;;;;;6072007;23;20461;-77
2021/11/01 04:44:10;;;;;;;120.97;28.70;;;11.20;99.90;;;;;;6097680;23;20394;-76
2021/11/01 04:54:56;;;;;;;259.70;38.13;;;11.20;99.90;;;;;;6072149;23;20876;-77
2021/11/01 04:57:25;;;;;;;300.03;51.03;;;11.20;99.90;;;;;;6107151;23;20394;-77
2021/11/01 04:59:54;;;;;;;204.90;33.77;;;11.20;99.90;;;;;;6071642;23;20937;-76
2021/11/01 05:02:26;;;;;;;271.33;43.80;;;11.20;99.90;;;;;;6070994;23;20810;-76
2021/11/01 05:04:56;;;;;;;253.43;48.07;;;11.20;99.90;;;;;;6071223;23;20505;-76
2021/11/01 05:07:27;;;;;;;170.13;30.00;;;11.10;99.90;;;;;;6071874;23;20447;-76
2021/11/01 05:10:00;;;;;;;262.43;49.20;;;11.10;99.90;;;;;;6072001;23;20489;-77
2021/11/01 05:12:31;;;;;;;213.03;28.20;;;11.10;99.90;;;;;;6107652;23;20398;-77
2021/11/01 05:15:08;;;;;;;224.70;36.83;;;11.10;99.90;;;;;;6097317;23;20846;-77
2021/11/01 05:17:49;;;;;;;171.07;37.20;;;11.10;99.90;;;;;;6072527;23;20854;-77
2021/11/01 05:20:22;;;;;;;241.03;36.17;;;11.10;99.90;;;;;;6071635;23;20445;-77
2021/11/01 05:22:55;;;;;;;172.73;33.20;;;11.10;99.90;;;;;;6107161;23;20395;-76
2021/11/01 05:25:48;;;;;;;256.57;40.73;;;11.10;99.90;;;;;;6072232;23;20403;-78
2021/11/01 05:28:27;;;;;;;172.20;31.27;;;11.10;99.90;;;;;;6071786;23;20781;-78
2021/11/01 05:30:59;;;;;;;252.83;49.93;;;11.00;99.90;;;;;;6097077;23;20931;-78
2021/11/01 05:33:46;;;;;;;180.67;32.03;;;11.00;99.90;;;;;;6101663;23;20422;-78
2021/11/01 05:36:19;;;;;;;181.67;25.30;;;11.00;99.90;;;;;;6107335;23;20969;-78
2021/11/01 05:38:48;;;;;;;293.50;44.70;;;11.00;99.90;;;;;;6071833;23;20422;-78
2021/11/01 05:41:16;;;;;;;221.53;36.07;;;11.00;99.90;;;;;;6072628;23;20421;-78
2021/11/01 05:43:45;;;;;;;128.73;30.83;;;11.00;99.90;;;;;;6099511;23;20411;-78
2021/11/01 05:46:14;;;;;;;276.17;51.27;;;11.00;99.90;;;;;;6073639;23;20465;-77
2021/11/01 05:48:51;;;;;;;179.40;38.83;;;10.90;99.90;;;;;;6109139;23;20430;-78
2021/11/01 05:51:23;;;;;;;280.63;42.27;;;10.90;99.90;;;;;;6073669;23;20936;-78
2021/11/01 05:53:54;;;;;;;278.93;41.03;;;10.90;99.90;;;;;;6073224;23;20461;-78
2021/11/01 05:56:31;;;;;;;230.87;36.60;;;10.90;99.90;;;;;;6073545;23;20461;-78
2021/11/01 05:59:19;;;;;;;172.10;35.40;;;10.90;99.90;;;;;;6099370;23;20394;-78
2021/11/01 06:04:53;;;;;;;183.63;37.47;;;10.80;99.90;;;;;;6091080;23;20426;-78
2021/11/01 06:07:29;;;;;;;198.13;26.70;;;10.80;99.90;;;;;;6106284;23;20382;-76
2021/11/01 06:10:02;;;;;;;171.43;26.80;;;10.80;99.90;;;;;;6071028;23;20520;-78
2021/11/01 06:15:16;;;;;;;272.93;39.63;;;10.80;99.90;;;;;;6072811;23;20798;-78
2021/11/01 06:17:47;;;;;;;174.47;27.70;;;10.80;99.90;;;;;;6072945;23;20806;-78
2021/11/01 06:20:17;;;;;;;236.17;34.97;;;10.70;99.90;;;;;;6072800;23;20446;-78
2021/11/01 06:22:46;;;;;;;310.13;39.80;;;10.70;99.90;;;;;;6074630;23;20403;-78
2021/11/01 06:25:16;;;;;;;191.40;26.90;;;10.70;99.90;;;;;;6073315;23;20509;-78
2021/11/01 06:27:46;;;;;;;180.40;32.40;;;10.70;99.90;;;;;;6073556;23;20512;-78
2021/11/01 06:30:26;;;;;;;182.80;30.57;;;10.70;99.90;;;;;;6073470;23;20442;-78
2021/11/01 06:33:16;;;;;;;213.10;43.37;;;10.70;99.90;;;;;;6099756;23;20390;-78
2021/11/01 06:41:43;;;;;;;218.83;39.40;;;10.60;99.90;;;;;;6061332;23;20456;-77
2021/11/01 06:44:27;;;;;;;199.40;31.13;;;10.60;99.90;;;;;;6073234;23;20422;-77
2021/11/01 06:49:48;;;;;;;216.07;39.43;;;10.50;99.90;;;;;;6108492;23;20559;-77
2021/11/01 06:57:58;;;;;;;155.80;30.53;;;10.50;99.90;;;;;;6068377;23;20894;-77
2021/11/01 07:14:27;;;;;;;221.33;38.63;;;10.50;99.90;;;;;;6073914;23;20430;-77
2021/11/01 07:16:58;;;;;;;159.70;29.63;;;10.50;99.90;;;;;;6098773;23;20757;-78
2021/11/01 07:19:37;;;;;;;213.80;30.33;;;10.50;99.90;;;;;;6108431;23;20429;-78
2021/11/01 07:22:28;;;;;;;149.00;32.93;;;10.60;99.90;;;;;;6072885;23;20489;-78
2021/11/01 07:25:22;;;;;;;203.07;28.67;;;10.60;99.90;;;;;;6072849;23;20453;-78
2021/11/01 07:38:08;;;;;;;159.77;31.87;;;10.60;99.90;;;;;;6050010;23;20457;-78
2021/11/01 08:20:59;;;;;;;219.07;35.33;;;10.50;99.90;;;;;;6098102;23;20425;-77
2021/11/01 08:35:29;;;;;;;238.63;35.63;;;10.70;99.90;;;;;;6072423;23;20434;-77
2021/11/01 08:38:17;;;;;;;320.53;35.87;;;10.80;99.90;;;;;;6072143;23;20414;-77
2021/11/01 08:46:29;;;;;;;254.07;29.37;;;10.90;99.90;;;;;;6080906;23;20481;-77
2021/11/01 08:49:13;;;;;;;177.40;27.27;;;11.00;99.90;;;;;;6071709;23;20434;-77
2021/11/01 09:03:29;;;;;;;378.60;50.43;;;11.30;99.90;;;;;;6071938;23;20410;-77
2021/11/01 09:06:10;;;;;;;256.77;33.67;;;11.30;99.90;;;;;;6072344;23;20418;-77
2021/11/01 09:20:03;;;;;;;243.67;39.53;;;11.60;99.90;;;;;;6071656;23;20433;-77
2021/11/01 09:23:04;;;;;;;315.27;49.90;;;11.60;99.90;;;;;;6072269;23;20421;-77
2021/11/01 09:25:54;;;;;;;376.37;63.87;;;11.60;99.90;;;;;;6097729;23;20405;-77
2021/11/01 09:28:28;;;;;;;357.67;71.67;;;11.70;99.90;;;;;;6071743;23;20889;-76
2021/11/01 09:36:31;;;;;;;356.67;76.43;;;11.80;99.90;;;;;;6071846;23;20761;-79
2021/11/01 09:41:46;;;;;;;407.67;92.33;;;11.90;99.90;;;;;;6029513;23;20418;-76
2021/11/01 09:44:20;;;;;;;354.23;68.43;;;11.90;99.90;;;;;;6071665;23;20461;-76
2021/11/01 09:46:48;;;;;;;395.83;67.23;;;12.00;99.90;;;;;;6071650;23;20469;-77
2021/11/01 09:49:18;;;;;;;426.87;84.70;;;12.00;99.90;;;;;;6097307;23;20429;-76
2021/11/01 09:51:50;;;;;;;451.13;102.67;;;12.10;99.90;;;;;;6071813;23;20509;-76
2021/11/01 09:54:22;;;;;;;396.67;70.73;;;12.10;99.90;;;;;;6107296;23;20438;-76
2021/11/01 09:57:01;;;;;;;341.77;74.80;;;12.10;99.90;;;;;;6071581;23;20469;-77
2021/11/01 09:59:32;;;;;;;335.23;69.53;;;12.20;99.90;;;;;;6071650;23;20465;-77
2021/11/01 10:02:06;;;;;;;412.90;99.17;;;12.20;99.90;;;;;;6071685;23;20457;-77
2021/11/01 10:04:35;;;;;;;262.47;65.20;;;12.20;99.90;;;;;;6071587;23;20428;-77
2021/11/01 10:07:20;;;;;;;618.87;123.20;;;12.20;99.90;;;;;;6071523;23;20407;-77
2021/11/01 10:09:52;;;;;;;612.57;117.17;;;12.30;99.90;;;;;;6107453;23;20430;-77
2021/11/01 10:12:24;;;;;;;580.00;95.00;;;12.30;99.90;;;;;;6071674;23;20406;-76
2021/11/01 10:14:55;;;;;;;425.43;119.33;;;12.40;99.90;;;;;;6071598;23;20512;-77
2021/11/01 10:17:35;;;;;;;511.37;104.03;;;12.40;99.90;;;;;;6071853;23;20407;-77
2021/11/01 10:20:11;;;;;;;117.40;42.93;;;12.40;99.90;;;;;;6071518;23;20438;-77
2021/11/01 10:22:41;;;;;;;60.07;36.83;;;12.40;99.90;;;;;;6097547;23;20457;-76
2021/11/01 10:25:17;;;;;;;661.60;139.37;;;12.40;99.90;;;;;;6071425;23;20422;-76
2021/11/01 10:27:49;;;;;;;228.15;55.83;;;12.50;99.90;;;;;;6071675;23;20427;-76
2021/11/01 10:30:23;;;;;;;605.57;163.30;;;12.50;99.90;;;;;;6073059;23;20225;-76
2021/11/01 10:32:53;;;;;;;678.23;139.70;;;12.50;99.90;;;;;;6099074;23;20420;-77
2021/11/01 10:35:24;;;;;;;199.30;62.30;;;12.50;99.90;;;;;;6109196;23;20417;-76
2021/11/01 10:38:17;;;;;;;550.77;129.20;;;12.50;99.90;;;;;;6099001;23;20394;-77
2021/11/01 10:41:00;;;;;;;367.47;96.67;;;12.60;99.90;;;;;;6095559;23;20493;-77
2021/11/01 10:43:43;;;;;;;516.23;108.10;;;12.60;99.90;;;;;;6097217;23;20421;-76
2021/11/01 11:11:38;;;;;;;497.03;117.93;;;12.80;99.90;;;;;;6098643;23;20426;-77
2021/11/01 11:14:18;;;;;;;771.87;183.33;;;12.80;99.90;;;;;;6073000;23;20824;-77
2021/11/01 11:19:42;;;;;;;806.50;195.63;;;12.90;99.90;;;;;;6049389;23;20471;-77
2021/11/01 11:22:30;;;;;;;1999.90;714.10;;;13.00;99.90;;;;;;6073315;23;20414;-77
2021/11/01 11:28:11;;;;;;;1999.90;795.27;;;13.10;99.90;;;;;;6016432;23;20893;-77
2021/11/01 11:42:27;;;;;;;1999.90;737.37;;;13.20;99.90;;;;;;6098380;23;20492;-77
2021/11/01 11:47:47;;;;;;;1999.90;841.27;;;13.20;99.90;;;;;;6098247;23;20465;-77
2021/11/01 11:50:19;;;;;;;1999.90;847.53;;;13.10;99.90;;;;;;6072204;23;20446;-77
2021/11/01 11:52:48;;;;;;;1999.90;759.87;;;13.20;99.90;;;;;;6072581;23;20862;-77
2021/11/01 11:55:21;;;;;;;1999.90;810.17;;;13.20;99.90;;;;;;6072590;23;20426;-77
2021/11/01 11:57:56;;;;;;;1999.90;537.40;;;13.30;99.90;;;;;;6108111;23;20382;-77
2021/11/01 12:00:27;;;;;;;1999.90;805.33;;;13.30;99.90;;;;;;6072274;23;20445;-77
2021/11/01 12:03:09;;;;;;;1999.90;552.70;;;13.30;99.90;;;;;;6072313;23;20413;-77
2021/11/01 12:05:41;;;;;;;1999.90;654.70;;;13.40;99.90;;;;;;6072397;23;20750;-77
2021/11/01 12:08:13;;;;;;;1999.90;899.13;;;13.40;99.90;;;;;;6098000;23;20390;-78
2021/11/01 12:11:13;;;;;;;1999.90;616.67;;;13.40;99.90;;;;;;6072540;23;20446;-77
2021/11/01 12:19:24;;;;;;;1999.90;374.80;;;13.50;99.90;;;;;;6098094;23;20437;-77
2021/11/01 12:21:56;;;;;;;1999.90;297.83;;;13.50;99.90;;;;;;6098259;23;20399;-77
2021/11/01 12:24:25;;;;;;;1999.90;458.90;;;13.50;99.90;;;;;;6072379;23;20741;-77
2021/11/01 12:27:02;;;;;;;1757.30;183.57;;;13.50;99.90;;;;;;6107374;23;20920;-77
2021/11/01 12:29:31;;;;;;;1999.90;841.33;;;13.50;99.90;;;;;;6107767;23;20417;-77
2021/11/01 12:32:09;;;;;;;1934.63;228.93;;;13.50;99.90;;;;;;6072073;23;20945;-77
2021/11/01 12:34:52;;;;;;;1983.07;262.83;;;13.50;99.90;;;;;;6072010;23;20421;-77
2021/11/01 12:37:24;;;;;;;1999.90;442.17;;;13.50;99.90;;;;;;6073179;23;20458;-77
2021/11/01 12:40:04;;;;;;;1999.90;300.33;;;13.50;99.90;;;;;;6097802;23;20426;-77
2021/11/01 12:57:01;;;;;;;1999.90;495.70;;;13.40;99.90;;;;;;6087335;23;20454;-77
2021/11/01 12:59:40;;;;;;;1999.90;812.03;;;13.40;99.90;;;;;;6107846;23;20790;-77
2021/11/01 13:02:12;;;;;;;1999.90;762.37;;;13.40;99.90;;;;;;6072169;23;20434;-77
2021/11/01 13:04:41;;;;;;;1999.90;308.00;;;13.40;99.90;;;;;;6107161;23;20819;-77
2021/11/01 13:07:36;;;;;;;1999.90;422.60;;;13.50;99.90;;;;;;6071731;23;20442;-77
2021/11/01 13:10:15;;;;;;;1999.90;765.63;;;13.50;99.90;;;;;;6071533;23;20438;-77
2021/11/01 13:18:46;;;;;;;1590.43;144.53;;;13.60;99.90;;;;;;6072361;23;20489;-77
2021/11/01 13:21:18;;;;;;;1999.90;759.93;;;13.60;99.90;;;;;;6106952;23;20925;-77
2021/11/01 13:23:55;;;;;;;1787.93;164.47;;;13.60;99.90;;;;;;6048771;23;20477;-77
2021/11/01 13:26:36;;;;;;;1999.90;999.90;;;13.70;99.90;;;;;;6107342;23;20415;-77
2021/11/01 13:34:43;;;;;;;1999.90;777.87;;;13.70;99.90;;;;;;6071917;23;20445;-77
2021/11/01 13:35:27;;;;;;;1999.90;308.00;;;13.70;99.90;;;;;;6071615;23;20481;-77
2021/11/01 13:38:01;;;;;;;1999.90;405.50;;;13.70;99.90;;;;;;6097494;23;20394;-77
2021/11/01 13:40:37;;;;;;;1667.17;151.00;;;13.60;99.90;;;;;;6071812;23;20769;-77
2021/11/01 13:43:05;;;;;;;1999.90;748.70;;;13.60;99.90;;;;;;6071534;23;20414;-77
2021/11/01 13:45:34;;;;;;;1999.90;799.03;;;13.60;99.90;;;;;;6107002;23;20774;-77
2021/11/01 13:48:27;;;;;;;1999.90;725.17;;;13.60;99.90;;;;;;6071671;23;20418;-77
2021/11/01 13:51:04;;;;;;;1999.90;317.00;;;13.60;99.90;;;;;;6071547;23;20930;-77
2021/11/01 13:53:38;;;;;;;1672.83;152.63;;;13.60;99.90;;;;;;6107285;23;20709;-77
2021/11/01 13:56:26;;;;;;;1999.90;999.90;;;13.60;99.90;;;;;;6071638;23;20481;-77
2021/11/01 13:59:01;;;;;;;1235.97;103.97;;;13.60;99.90;;;;;;6071398;23;20450;-77
2021/11/01 14:01:57;;;;;;;1934.33;714.90;;;13.60;99.90;;;;;;6107182;23;20378;-77
2021/11/01 14:12:52;;;;;;;962.90;372.40;;;13.50;99.90;;;;;;6073313;23;20469;-76
2021/11/01 14:18:34;;;;;;;1999.90;999.90;;;13.60;99.90;;;;;;6072525;23;20454;-77
2021/11/01 14:27:18;;;;;;;1999.90;801.80;;;13.60;99.90;;;;;;6072987;23;20905;-77
2021/11/01 14:30:25;;;;;;;1999.90;807.80;;;13.60;99.90;;;;;;6074424;23;20464;-77
2021/11/01 15:12:53;;;;;;;1999.90;724.43;;;13.30;99.90;;;;;;6072689;23;20438;-77
2021/11/01 15:15:32;;;;;;;775.53;136.70;;;13.20;99.90;;;;;;6072813;23;20429;-77
2021/11/01 15:20:55;;;;;;;1999.90;805.53;;;13.20;99.90;;;;;;6069555;23;20457;-78
2021/11/01 15:23:41;;;;;;;1999.90;737.10;;;13.20;99.90;;;;;;6072816;23;20418;-78
2021/11/01 15:38:18;;;;;;;543.00;98.97;;;13.00;99.90;;;;;;5986478;23;20452;-78
2021/11/01 16:19:51;;;;;;;422.07;77.87;;;12.30;99.90;;;;;;6022754;23;20438;-77
2021/11/01 16:22:20;;;;;;;328.97;39.93;;;12.30;99.90;;;;;;6072045;23;20453;-77
2021/11/01 16:24:49;;;;;;;413.63;55.00;;;12.20;99.90;;;;;;6072039;23;20489;-77
2021/11/01 16:27:21;;;;;;;416.40;62.57;;;12.20;99.90;;;;;;6072063;23;20473;-77
2021/11/01 16:29:54;;;;;;;279.77;39.47;;;12.10;99.90;;;;;;6107392;23;20477;-77
2021/11/01 16:32:25;;;;;;;303.67;43.10;;;12.10;99.90;;;;;;6072040;23;20934;-77
2021/11/01 16:35:01;;;;;;;323.03;45.67;;;12.10;99.90;;;;;;6072031;23;20426;-76
2021/11/01 16:37:35;;;;;;;381.67;55.63;;;12.00;99.90;;;;;;6072043;23;20807;-76
2021/11/01 16:40:08;;;;;;;191.93;36.40;;;12.00;99.90;;;;;;6072228;23;20525;-76
2021/11/01 16:42:41;;;;;;;365.57;48.60;;;11.90;99.90;;;;;;6072091;23;20417;-76
2021/11/01 16:45:15;;;;;;;382.40;44.43;;;11.90;99.90;;;;;;6072006;23;20932;-76
2021/11/01 16:47:46;;;;;;;343.60;55.33;;;11.80;99.90;;;;;;6072057;23;20418;-77
2021/11/01 16:50:19;;;;;;;228.00;45.10;;;11.80;99.90;;;;;;6071885;23;20448;-77
2021/11/01 16:52:49;;;;;;;493.27;80.90;;;11.80;99.90;;;;;;6073185;23;20750;-76
2021/11/01 16:55:19;;;;;;;286.27;52.87;;;11.70;99.90;;;;;;6107585;23;20430;-77
2021/11/01 16:57:54;;;;;;;371.33;42.60;;;11.70;99.90;;;;;;6072071;23;20463;-76
2021/11/01 17:00:29;;;;;;;262.37;36.03;;;11.70;99.90;;;;;;6072236;23;20442;-77
2021/11/01 17:03:19;;;;;;;298.33;35.43;;;11.60;99.90;;;;;;6071854;23;20425;-77
2021/11/01 17:05:59;;;;;;;393.57;52.37;;;11.60;99.90;;;;;;6107531;23;20834;-77
2021/11/01 17:22:28;;;;;;;339.10;43.70;;;11.40;99.90;;;;;;6071748;23;20446;-78
2021/11/01 17:25:00;;;;;;;284.03;37.30;;;11.30;99.90;;;;;;6071862;23;20805;-78
2021/11/01 17:30:49;;;;;;;375.27;44.80;;;11.30;99.90;;;;;;6096931;23;20489;-77
2021/11/01 17:36:36;;;;;;;383.97;53.90;;;11.20;99.90;;;;;;6071952;23;20929;-76
2021/11/01 18:41:18;;;;;;;222.90;28.83;;;10.30;99.90;;;;;;6063814;23;20528;-77
2021/11/01 18:50:48;;;;;;;221.50;23.47;;;10.30;99.90;;;;;;6073128;23;20477;-77
2021/11/01 18:52:29;;;;;;;202.23;24.73;;;10.20;99.90;;;;;;6072764;23;20427;-77
2021/11/01 18:55:05;;;;;;;217.53;24.70;;;10.10;99.90;;;;;;6072922;23;20429;-77
2021/11/01 18:57:35;;;;;;;98.33;17.63;;;10.10;99.90;;;;;;6072196;23;20437;-77
2021/11/01 19:00:07;;;;;;;188.10;29.80;;;10.10;99.90;;;;;;6108216;23;20471;-77
2021/11/01 19:02:45;;;;;;;179.07;25.13;;;10.10;99.90;;;;;;6073103;23;20751;-77
2021/11/01 19:05:21;;;;;;;260.07;31.37;;;10.00;99.90;;;;;;6107011;23;20390;-77
2021/11/01 19:07:59;;;;;;;200.97;36.60;;;10.00;99.90;;;;;;6072889;23;20414;-77
2021/11/01 19:11:13;;;;;;;208.90;46.83;;;10.00;99.90;;;;;;6098652;23;20438;-77
2021/11/01 20:04:20;;;;;;;137.10;20.80;;;9.30;99.90;;;;;;6073049;23;20893;-79
2021/11/01 20:07:12;;;;;;;157.37;19.83;;;9.30;99.90;;;;;;6108631;23;20390;-77
2021/11/01 20:12:52;;;;;;;195.90;22.90;;;9.30;99.90;;;;;;5958922;24;20426;-78
2021/11/01 20:15:45;;;;;;;112.13;21.43;;;9.20;99.90;;;;;;6082087;23;20566;-78
2021/11/01 21:25:49;;;;;;;167.07;24.03;;;8.70;99.90;;;;;;6024938;23;20739;-78
2021/11/01 21:28:18;;;;;;;187.43;29.63;;;8.70;99.90;;;;;;6071912;23;20418;-78
2021/11/01 21:30:47;;;;;;;141.50;18.63;;;8.70;99.90;;;;;;6071854;23;20474;-78
2021/11/01 21:33:18;;;;;;;144.03;24.73;;;8.70;99.90;;;;;;6071756;23;21008;-79
2021/11/01 21:35:48;;;;;;;201.27;24.67;;;8.70;99.90;;;;;;6071948;23;20434;-78
2021/11/01 21:38:17;;;;;;;199.37;21.00;;;8.70;99.90;;;;;;6072080;23;20477;-78
2021/11/01 21:40:45;;;;;;;182.87;20.43;;;8.70;99.90;;;;;;6071918;23;20453;-77
2021/11/01 21:43:17;;;;;;;181.40;22.33;;;8.80;99.90;;;;;;6072374;23;20758;-79
2021/11/01 21:45:46;;;;;;;211.93;25.13;;;8.80;99.90;;;;;;6072232;23;20449;-78
2021/11/01 21:48:14;;;;;;;215.67;31.33;;;8.80;99.90;;;;;;6071930;23;20446;-78